sensor_id;sensor_type;location;lat;lon;timestamp;P1;durP1;ratioP1;P2;durP2;ratioP2
43337;SDS011;28933;52.492;13.434;2022-08-19T00:01:30;9.77;;;8.77;;
43337;SDS011;28933;52.492;13.434;2022-08-19T00:04:00;10.30;;;9.20;;
43337;SDS011;28933;52.492;13.434;2022-08-19T00:06:28;10.93;;;9.02;;
43337;SDS011;28933;52.492;13.434;2022-08-19T00:08:54;10.68;;;9.38;;
43337;SDS011;28933;52.492;13.434;2022-08-19T00:11:21;9.65;;;8.65;;
43337;SDS011;28933;52.492;13.434;2022-08-19T00:13:47;10.98;;;8.93;;
43337;SDS011;28933;52.492;13.434;2022-08-19T00:16:15;11.45;;;8.95;;
43337;SDS011;28933;52.492;13.434;2022-08-19T00:18:45;10.32;;;9.23;;
43337;SDS011;28933;52.492;13.434;2022-08-19T00:21:11;9.80;;;8.82;;
43337;SDS011;28933;52.492;13.434;2022-08-19T00:23:37;10.02;;;9.00;;
43337;SDS011;28933;52.492;13.434;2022-08-19T00:26:03;11.05;;;9.57;;
43337;SDS011;28933;52.492;13.434;2022-08-19T00:28:29;9.68;;;8.68;;
43337;SDS011;28933;52.492;13.434;2022-08-19T00:30:55;10.30;;;9.30;;
43337;SDS011;28933;52.492;13.434;2022-08-19T00:33:21;11.60;;;9.90;;
43337;SDS011;28933;52.492;13.434;2022-08-19T00:35:47;10.68;;;9.55;;
43337;SDS011;28933;52.492;13.434;2022-08-19T00:38:13;10.75;;;9.43;;
43337;SDS011;28933;52.492;13.434;2022-08-19T00:40:39;10.80;;;9.48;;
43337;SDS011;28933;52.492;13.434;2022-08-19T00:43:10;12.23;;;10.10;;
43337;SDS011;28933;52.492;13.434;2022-08-19T00:45:38;12.38;;;10.27;;
43337;SDS011;28933;52.492;13.434;2022-08-19T00:48:09;12.52;;;11.23;;
43337;SDS011;28933;52.492;13.434;2022-08-19T00:50:35;14.30;;;11.63;;
43337;SDS011;28933;52.492;13.434;2022-08-19T00:53:01;12.30;;;10.75;;
43337;SDS011;28933;52.492;13.434;2022-08-19T00:55:29;13.00;;;11.00;;
43337;SDS011;28933;52.492;13.434;2022-08-19T00:57:58;14.07;;;12.52;;
43337;SDS011;28933;52.492;13.434;2022-08-19T01:00:33;14.13;;;11.13;;
43337;SDS011;28933;52.492;13.434;2022-08-19T01:03:02;11.90;;;10.00;;
43337;SDS011;28933;52.492;13.434;2022-08-19T01:05:34;13.70;;;12.07;;
43337;SDS011;28933;52.492;13.434;2022-08-19T01:08:02;14.52;;;12.27;;
43337;SDS011;28933;52.492;13.434;2022-08-19T01:10:33;14.68;;;12.10;;
43337;SDS011;28933;52.492;13.434;2022-08-19T01:13:02;12.93;;;11.63;;
43337;SDS011;28933;52.492;13.434;2022-08-19T01:15:30;12.90;;;11.57;;
43337;SDS011;28933;52.492;13.434;2022-08-19T01:17:59;12.52;;;11.20;;
43337;SDS011;28933;52.492;13.434;2022-08-19T01:20:29;12.57;;;11.27;;
43337;SDS011;28933;52.492;13.434;2022-08-19T01:22:56;13.90;;;12.40;;
43337;SDS011;28933;52.492;13.434;2022-08-19T01:25:25;12.98;;;11.63;;
43337;SDS011;28933;52.492;13.434;2022-08-19T01:28:01;12.27;;;10.97;;
43337;SDS011;28933;52.492;13.434;2022-08-19T01:30:28;12.60;;;11.18;;
43337;SDS011;28933;52.492;13.434;2022-08-19T01:32:56;12.68;;;11.35;;
43337;SDS011;28933;52.492;13.434;2022-08-19T01:35:24;12.88;;;11.13;;
43337;SDS011;28933;52.492;13.434;2022-08-19T01:37:56;13.23;;;11.95;;
43337;SDS011;28933;52.492;13.434;2022-08-19T01:40:24;13.77;;;12.00;;
43337;SDS011;28933;52.492;13.434;2022-08-19T01:42:52;12.93;;;11.52;;
43337;SDS011;28933;52.492;13.434;2022-08-19T01:45:19;13.85;;;12.45;;
43337;SDS011;28933;52.492;13.434;2022-08-19T01:47:46;14.63;;;12.90;;
43337;SDS011;28933;52.492;13.434;2022-08-19T01:50:13;15.68;;;12.52;;
43337;SDS011;28933;52.492;13.434;2022-08-19T01:52:40;17.65;;;13.48;;
43337;SDS011;28933;52.492;13.434;2022-08-19T01:55:07;14.85;;;13.35;;
43337;SDS011;28933;52.492;13.434;2022-08-19T01:57:35;15.07;;;13.48;;
43337;SDS011;28933;52.492;13.434;2022-08-19T02:00:05;15.80;;;13.25;;
43337;SDS011;28933;52.492;13.434;2022-08-19T02:02:34;15.15;;;12.85;;
43337;SDS011;28933;52.492;13.434;2022-08-19T02:04:59;18.65;;;13.73;;
43337;SDS011;28933;52.492;13.434;2022-08-19T02:07:25;16.13;;;13.55;;
43337;SDS011;28933;52.492;13.434;2022-08-19T02:09:53;16.17;;;12.98;;
43337;SDS011;28933;52.492;13.434;2022-08-19T02:12:19;14.60;;;13.07;;
43337;SDS011;28933;52.492;13.434;2022-08-19T02:14:45;17.58;;;14.38;;
43337;SDS011;28933;52.492;13.434;2022-08-19T02:17:11;17.98;;;14.18;;
43337;SDS011;28933;52.492;13.434;2022-08-19T02:19:36;17.70;;;13.77;;
43337;SDS011;28933;52.492;13.434;2022-08-19T02:22:02;14.00;;;12.45;;
43337;SDS011;28933;52.492;13.434;2022-08-19T02:24:28;15.82;;;12.18;;
43337;SDS011;28933;52.492;13.434;2022-08-19T02:26:53;14.38;;;12.88;;
43337;SDS011;28933;52.492;13.434;2022-08-19T02:29:19;13.07;;;11.77;;
43337;SDS011;28933;52.492;13.434;2022-08-19T02:31:45;14.45;;;11.75;;
43337;SDS011;28933;52.492;13.434;2022-08-19T02:34:10;14.18;;;12.68;;
43337;SDS011;28933;52.492;13.434;2022-08-19T02:36:36;16.70;;;12.45;;
43337;SDS011;28933;52.492;13.434;2022-08-19T02:39:02;14.32;;;12.60;;
43337;SDS011;28933;52.492;13.434;2022-08-19T02:41:29;17.80;;;15.30;;
43337;SDS011;28933;52.492;13.434;2022-08-19T02:43:56;19.15;;;15.65;;
43337;SDS011;28933;52.492;13.434;2022-08-19T02:46:27;18.23;;;16.38;;
43337;SDS011;28933;52.492;13.434;2022-08-19T02:48:56;20.23;;;16.10;;
43337;SDS011;28933;52.492;13.434;2022-08-19T02:51:28;19.27;;;16.90;;
43337;SDS011;28933;52.492;13.434;2022-08-19T02:53:56;17.85;;;15.95;;
43337;SDS011;28933;52.492;13.434;2022-08-19T02:56:22;17.60;;;14.95;;
43337;SDS011;28933;52.492;13.434;2022-08-19T02:58:49;15.95;;;14.23;;
43337;SDS011;28933;52.492;13.434;2022-08-19T03:01:26;15.30;;;13.30;;
43337;SDS011;28933;52.492;13.434;2022-08-19T03:03:57;16.25;;;13.27;;
43337;SDS011;28933;52.492;13.434;2022-08-19T03:06:24;15.55;;;13.43;;
43337;SDS011;28933;52.492;13.434;2022-08-19T03:08:50;17.40;;;13.73;;
43337;SDS011;28933;52.492;13.434;2022-08-19T03:11:17;15.32;;;13.73;;
43337;SDS011;28933;52.492;13.434;2022-08-19T03:13:46;15.50;;;13.85;;
43337;SDS011;28933;52.492;13.434;2022-08-19T03:16:14;15.52;;;13.55;;
43337;SDS011;28933;52.492;13.434;2022-08-19T03:18:40;15.88;;;13.80;;
43337;SDS011;28933;52.492;13.434;2022-08-19T03:21:05;14.63;;;13.02;;
43337;SDS011;28933;52.492;13.434;2022-08-19T03:23:32;15.35;;;12.85;;
43337;SDS011;28933;52.492;13.434;2022-08-19T03:25:59;13.40;;;11.60;;
43337;SDS011;28933;52.492;13.434;2022-08-19T03:28:29;14.23;;;11.88;;
43337;SDS011;28933;52.492;13.434;2022-08-19T03:30:59;14.15;;;12.55;;
43337;SDS011;28933;52.492;13.434;2022-08-19T03:33:27;14.75;;;13.15;;
43337;SDS011;28933;52.492;13.434;2022-08-19T03:36:04;13.48;;;12.05;;
43337;SDS011;28933;52.492;13.434;2022-08-19T03:38:36;17.17;;;12.88;;
43337;SDS011;28933;52.492;13.434;2022-08-19T03:41:07;16.92;;;13.55;;
43337;SDS011;28933;52.492;13.434;2022-08-19T03:43:38;15.88;;;13.13;;
43337;SDS011;28933;52.492;13.434;2022-08-19T03:46:06;14.82;;;13.32;;
43337;SDS011;28933;52.492;13.434;2022-08-19T03:48:34;14.88;;;13.27;;
43337;SDS011;28933;52.492;13.434;2022-08-19T03:51:01;17.50;;;14.80;;
43337;SDS011;28933;52.492;13.434;2022-08-19T03:53:28;14.95;;;13.45;;
43337;SDS011;28933;52.492;13.434;2022-08-19T03:55:54;15.52;;;13.70;;
43337;SDS011;28933;52.492;13.434;2022-08-19T03:58:22;15.85;;;14.25;;
43337;SDS011;28933;52.492;13.434;2022-08-19T04:00:47;16.00;;;14.15;;
43337;SDS011;28933;52.492;13.434;2022-08-19T04:03:13;15.40;;;13.65;;
43337;SDS011;28933;52.492;13.434;2022-08-19T04:05:39;14.35;;;12.85;;
43337;SDS011;28933;52.492;13.434;2022-08-19T04:08:05;14.80;;;13.20;;
43337;SDS011;28933;52.492;13.434;2022-08-19T04:10:31;16.60;;;14.35;;
43337;SDS011;28933;52.492;13.434;2022-08-19T04:13:00;16.33;;;14.15;;
43337;SDS011;28933;52.492;13.434;2022-08-19T04:15:26;17.05;;;15.02;;
43337;SDS011;28933;52.492;13.434;2022-08-19T04:17:53;14.60;;;13.10;;
43337;SDS011;28933;52.492;13.434;2022-08-19T04:20:19;15.65;;;14.00;;
43337;SDS011;28933;52.492;13.434;2022-08-19T04:22:45;15.80;;;13.57;;
43337;SDS011;28933;52.492;13.434;2022-08-19T04:25:10;14.65;;;13.05;;
43337;SDS011;28933;52.492;13.434;2022-08-19T04:27:36;14.57;;;13.07;;
43337;SDS011;28933;52.492;13.434;2022-08-19T04:30:02;14.85;;;13.30;;
43337;SDS011;28933;52.492;13.434;2022-08-19T04:32:28;15.45;;;13.88;;
43337;SDS011;28933;52.492;13.434;2022-08-19T04:34:56;15.75;;;13.07;;
43337;SDS011;28933;52.492;13.434;2022-08-19T04:37:23;16.83;;;13.18;;
43337;SDS011;28933;52.492;13.434;2022-08-19T04:39:51;18.17;;;15.73;;
43337;SDS011;28933;52.492;13.434;2022-08-19T04:42:35;15.32;;;13.73;;
43337;SDS011;28933;52.492;13.434;2022-08-19T04:45:08;15.25;;;13.18;;
43337;SDS011;28933;52.492;13.434;2022-08-19T04:47:37;15.65;;;13.85;;
43337;SDS011;28933;52.492;13.434;2022-08-19T04:50:04;15.68;;;13.63;;
43337;SDS011;28933;52.492;13.434;2022-08-19T04:52:31;16.08;;;14.10;;
43337;SDS011;28933;52.492;13.434;2022-08-19T04:54:57;14.40;;;12.85;;
43337;SDS011;28933;52.492;13.434;2022-08-19T04:57:23;16.15;;;13.23;;
43337;SDS011;28933;52.492;13.434;2022-08-19T04:59:49;15.65;;;14.07;;
43337;SDS011;28933;52.492;13.434;2022-08-19T05:02:19;15.57;;;13.90;;
43337;SDS011;28933;52.492;13.434;2022-08-19T05:04:45;15.45;;;13.55;;
43337;SDS011;28933;52.492;13.434;2022-08-19T05:07:11;16.45;;;14.57;;
43337;SDS011;28933;52.492;13.434;2022-08-19T05:09:37;15.10;;;13.55;;
43337;SDS011;28933;52.492;13.434;2022-08-19T05:12:02;16.90;;;15.20;;
43337;SDS011;28933;52.492;13.434;2022-08-19T05:14:28;19.70;;;14.38;;
43337;SDS011;28933;52.492;13.434;2022-08-19T05:16:54;14.65;;;13.15;;
43337;SDS011;28933;52.492;13.434;2022-08-19T05:19:19;16.38;;;14.25;;
43337;SDS011;28933;52.492;13.434;2022-08-19T05:22:04;15.23;;;13.63;;
43337;SDS011;28933;52.492;13.434;2022-08-19T05:24:48;16.83;;;14.50;;
43337;SDS011;28933;52.492;13.434;2022-08-19T05:27:13;15.55;;;13.95;;
43337;SDS011;28933;52.492;13.434;2022-08-19T05:29:39;15.07;;;13.63;;
43337;SDS011;28933;52.492;13.434;2022-08-19T05:32:05;16.38;;;13.45;;
43337;SDS011;28933;52.492;13.434;2022-08-19T05:34:35;14.68;;;13.13;;
43337;SDS011;28933;52.492;13.434;2022-08-19T05:37:03;16.45;;;14.18;;
43337;SDS011;28933;52.492;13.434;2022-08-19T05:39:30;17.17;;;13.57;;
43337;SDS011;28933;52.492;13.434;2022-08-19T05:41:58;14.98;;;13.38;;
43337;SDS011;28933;52.492;13.434;2022-08-19T05:44:27;15.15;;;13.65;;
43337;SDS011;28933;52.492;13.434;2022-08-19T05:46:58;14.38;;;12.98;;
43337;SDS011;28933;52.492;13.434;2022-08-19T05:49:25;14.32;;;12.88;;
43337;SDS011;28933;52.492;13.434;2022-08-19T05:51:51;14.57;;;12.93;;
43337;SDS011;28933;52.492;13.434;2022-08-19T05:54:18;15.40;;;13.07;;
43337;SDS011;28933;52.492;13.434;2022-08-19T05:56:45;15.18;;;13.30;;
43337;SDS011;28933;52.492;13.434;2022-08-19T05:59:12;15.10;;;13.60;;
43337;SDS011;28933;52.492;13.434;2022-08-19T06:01:42;16.02;;;13.82;;
43337;SDS011;28933;52.492;13.434;2022-08-19T06:04:10;15.88;;;14.18;;
43337;SDS011;28933;52.492;13.434;2022-08-19T06:06:36;14.82;;;13.30;;
43337;SDS011;28933;52.492;13.434;2022-08-19T06:09:02;14.38;;;12.82;;
43337;SDS011;28933;52.492;13.434;2022-08-19T06:11:35;15.27;;;13.55;;
43337;SDS011;28933;52.492;13.434;2022-08-19T06:14:06;17.25;;;14.85;;
43337;SDS011;28933;52.492;13.434;2022-08-19T06:16:36;15.20;;;13.60;;
43337;SDS011;28933;52.492;13.434;2022-08-19T06:19:04;15.75;;;14.05;;
43337;SDS011;28933;52.492;13.434;2022-08-19T06:21:32;16.95;;;13.48;;
43337;SDS011;28933;52.492;13.434;2022-08-19T06:23:59;15.73;;;13.80;;
43337;SDS011;28933;52.492;13.434;2022-08-19T06:26:25;15.60;;;14.00;;
43337;SDS011;28933;52.492;13.434;2022-08-19T06:28:51;16.13;;;14.13;;
43337;SDS011;28933;52.492;13.434;2022-08-19T06:31:19;17.13;;;14.48;;
43337;SDS011;28933;52.492;13.434;2022-08-19T06:33:47;18.10;;;15.38;;
43337;SDS011;28933;52.492;13.434;2022-08-19T06:39:08;16.10;;;14.50;;
43337;SDS011;28933;52.492;13.434;2022-08-19T06:41:37;17.90;;;15.13;;
43337;SDS011;28933;52.492;13.434;2022-08-19T06:44:05;16.63;;;14.90;;
43337;SDS011;28933;52.492;13.434;2022-08-19T06:46:35;16.52;;;14.73;;
43337;SDS011;28933;52.492;13.434;2022-08-19T06:49:02;16.70;;;15.05;;
43337;SDS011;28933;52.492;13.434;2022-08-19T06:51:31;16.48;;;14.73;;
43337;SDS011;28933;52.492;13.434;2022-08-19T06:53:57;17.83;;;15.82;;
43337;SDS011;28933;52.492;13.434;2022-08-19T06:56:24;16.92;;;15.23;;
43337;SDS011;28933;52.492;13.434;2022-08-19T06:58:57;16.58;;;14.95;;
43337;SDS011;28933;52.492;13.434;2022-08-19T07:01:23;16.58;;;14.95;;
43337;SDS011;28933;52.492;13.434;2022-08-19T07:03:48;16.52;;;14.93;;
43337;SDS011;28933;52.492;13.434;2022-08-19T07:06:16;17.85;;;15.90;;
43337;SDS011;28933;52.492;13.434;2022-08-19T07:08:45;17.52;;;14.95;;
43337;SDS011;28933;52.492;13.434;2022-08-19T07:11:13;17.52;;;15.80;;
43337;SDS011;28933;52.492;13.434;2022-08-19T07:13:40;17.40;;;14.82;;
43337;SDS011;28933;52.492;13.434;2022-08-19T07:16:09;19.70;;;16.85;;
43337;SDS011;28933;52.492;13.434;2022-08-19T07:18:38;18.83;;;15.40;;
43337;SDS011;28933;52.492;13.434;2022-08-19T07:23:35;16.63;;;14.88;;
43337;SDS011;28933;52.492;13.434;2022-08-19T07:26:05;16.98;;;15.15;;
43337;SDS011;28933;52.492;13.434;2022-08-19T07:28:32;16.48;;;14.70;;
43337;SDS011;28933;52.492;13.434;2022-08-19T07:30:57;17.73;;;15.82;;
43337;SDS011;28933;52.492;13.434;2022-08-19T07:33:23;16.75;;;15.05;;
43337;SDS011;28933;52.492;13.434;2022-08-19T07:35:48;20.10;;;15.63;;
43337;SDS011;28933;52.492;13.434;2022-08-19T07:38:15;17.58;;;15.77;;
43337;SDS011;28933;52.492;13.434;2022-08-19T07:40:41;16.15;;;14.50;;
43337;SDS011;28933;52.492;13.434;2022-08-19T07:43:08;16.05;;;14.32;;
43337;SDS011;28933;52.492;13.434;2022-08-19T07:45:34;18.33;;;15.43;;
43337;SDS011;28933;52.492;13.434;2022-08-19T07:47:59;16.70;;;14.98;;
43337;SDS011;28933;52.492;13.434;2022-08-19T07:50:25;16.77;;;15.07;;
43337;SDS011;28933;52.492;13.434;2022-08-19T07:52:51;18.88;;;15.30;;
43337;SDS011;28933;52.492;13.434;2022-08-19T07:55:18;18.00;;;16.23;;
43337;SDS011;28933;52.492;13.434;2022-08-19T07:57:45;16.63;;;14.98;;
43337;SDS011;28933;52.492;13.434;2022-08-19T08:00:11;18.25;;;15.93;;
43337;SDS011;28933;52.492;13.434;2022-08-19T08:02:37;18.15;;;16.15;;
43337;SDS011;28933;52.492;13.434;2022-08-19T08:05:04;16.40;;;14.57;;
43337;SDS011;28933;52.492;13.434;2022-08-19T08:07:48;16.10;;;14.43;;
43337;SDS011;28933;52.492;13.434;2022-08-19T08:10:32;16.42;;;14.80;;
43337;SDS011;28933;52.492;13.434;2022-08-19T08:12:58;16.10;;;14.40;;
43337;SDS011;28933;52.492;13.434;2022-08-19T08:15:24;18.30;;;16.45;;
43337;SDS011;28933;52.492;13.434;2022-08-19T08:17:49;16.90;;;15.18;;
43337;SDS011;28933;52.492;13.434;2022-08-19T08:20:16;16.73;;;15.13;;
43337;SDS011;28933;52.492;13.434;2022-08-19T08:22:43;18.58;;;16.67;;
43337;SDS011;28933;52.492;13.434;2022-08-19T08:25:28;16.45;;;14.90;;
43337;SDS011;28933;52.492;13.434;2022-08-19T08:27:56;18.10;;;16.30;;
43337;SDS011;28933;52.492;13.434;2022-08-19T08:30:25;18.20;;;15.98;;
43337;SDS011;28933;52.492;13.434;2022-08-19T08:32:52;16.77;;;15.07;;
43337;SDS011;28933;52.492;13.434;2022-08-19T08:35:21;16.98;;;15.23;;
43337;SDS011;28933;52.492;13.434;2022-08-19T08:37:49;16.70;;;15.00;;
43337;SDS011;28933;52.492;13.434;2022-08-19T08:43:18;17.48;;;15.38;;
43337;SDS011;28933;52.492;13.434;2022-08-19T08:45:51;18.38;;;16.25;;
43337;SDS011;28933;52.492;13.434;2022-08-19T08:48:24;20.00;;;16.17;;
43337;SDS011;28933;52.492;13.434;2022-08-19T08:50:58;16.65;;;14.95;;
43337;SDS011;28933;52.492;13.434;2022-08-19T08:53:26;17.52;;;15.18;;
43337;SDS011;28933;52.492;13.434;2022-08-19T08:55:52;18.27;;;16.35;;
43337;SDS011;28933;52.492;13.434;2022-08-19T08:58:20;16.95;;;15.25;;
43337;SDS011;28933;52.492;13.434;2022-08-19T09:00:53;17.85;;;16.08;;
43337;SDS011;28933;52.492;13.434;2022-08-19T09:03:20;15.88;;;14.27;;
43337;SDS011;28933;52.492;13.434;2022-08-19T09:08:34;17.35;;;15.65;;
43337;SDS011;28933;52.492;13.434;2022-08-19T09:11:09;18.52;;;16.58;;
43337;SDS011;28933;52.492;13.434;2022-08-19T09:13:44;18.25;;;16.45;;
43337;SDS011;28933;52.492;13.434;2022-08-19T09:16:33;18.30;;;16.55;;
43337;SDS011;28933;52.492;13.434;2022-08-19T09:19:02;19.08;;;17.17;;
43337;SDS011;28933;52.492;13.434;2022-08-19T09:21:30;16.83;;;15.30;;
43337;SDS011;28933;52.492;13.434;2022-08-19T09:23:56;16.88;;;15.27;;
43337;SDS011;28933;52.492;13.434;2022-08-19T09:26:23;17.77;;;16.05;;
43337;SDS011;28933;52.492;13.434;2022-08-19T09:28:50;17.60;;;15.93;;
43337;SDS011;28933;52.492;13.434;2022-08-19T09:31:24;15.57;;;13.38;;
43337;SDS011;28933;52.492;13.434;2022-08-19T09:36:19;17.25;;;15.40;;
43337;SDS011;28933;52.492;13.434;2022-08-19T09:38:47;16.35;;;14.75;;
43337;SDS011;28933;52.492;13.434;2022-08-19T09:41:17;17.73;;;16.05;;
43337;SDS011;28933;52.492;13.434;2022-08-19T09:43:45;16.95;;;15.25;;
43337;SDS011;28933;52.492;13.434;2022-08-19T09:46:13;16.83;;;15.23;;
43337;SDS011;28933;52.492;13.434;2022-08-19T09:48:41;17.52;;;15.73;;
43337;SDS011;28933;52.492;13.434;2022-08-19T09:51:08;16.58;;;14.88;;
43337;SDS011;28933;52.492;13.434;2022-08-19T09:53:36;16.13;;;14.50;;
43337;SDS011;28933;52.492;13.434;2022-08-19T09:56:03;16.98;;;14.95;;
43337;SDS011;28933;52.492;13.434;2022-08-19T09:58:30;16.73;;;14.75;;
43337;SDS011;28933;52.492;13.434;2022-08-19T10:00:57;18.10;;;16.27;;
43337;SDS011;28933;52.492;13.434;2022-08-19T10:03:24;16.15;;;14.52;;
43337;SDS011;28933;52.492;13.434;2022-08-19T10:05:52;15.35;;;13.80;;
43337;SDS011;28933;52.492;13.434;2022-08-19T10:08:20;16.77;;;15.25;;
43337;SDS011;28933;52.492;13.434;2022-08-19T10:10:49;16.50;;;14.80;;
43337;SDS011;28933;52.492;13.434;2022-08-19T10:13:17;16.17;;;14.52;;
43337;SDS011;28933;52.492;13.434;2022-08-19T10:15:47;16.60;;;14.90;;
43337;SDS011;28933;52.492;13.434;2022-08-19T10:18:15;15.30;;;13.65;;
43337;SDS011;28933;52.492;13.434;2022-08-19T10:20:42;16.40;;;14.75;;
43337;SDS011;28933;52.492;13.434;2022-08-19T10:23:10;16.67;;;15.07;;
43337;SDS011;28933;52.492;13.434;2022-08-19T10:25:37;15.93;;;14.30;;
43337;SDS011;28933;52.492;13.434;2022-08-19T10:28:03;15.90;;;13.02;;
43337;SDS011;28933;52.492;13.434;2022-08-19T10:30:29;15.48;;;13.93;;
43337;SDS011;28933;52.492;13.434;2022-08-19T10:32:54;14.88;;;13.43;;
43337;SDS011;28933;52.492;13.434;2022-08-19T10:35:20;15.50;;;13.98;;
43337;SDS011;28933;52.492;13.434;2022-08-19T10:37:46;15.00;;;13.60;;
43337;SDS011;28933;52.492;13.434;2022-08-19T10:40:11;15.18;;;13.68;;
43337;SDS011;28933;52.492;13.434;2022-08-19T10:42:37;15.50;;;13.88;;
43337;SDS011;28933;52.492;13.434;2022-08-19T10:45:03;17.02;;;15.30;;
43337;SDS011;28933;52.492;13.434;2022-08-19T10:47:31;14.95;;;13.45;;
43337;SDS011;28933;52.492;13.434;2022-08-19T10:49:57;16.00;;;14.30;;
43337;SDS011;28933;52.492;13.434;2022-08-19T10:52:45;15.57;;;13.93;;
43337;SDS011;28933;52.492;13.434;2022-08-19T10:55:12;14.10;;;12.65;;
43337;SDS011;28933;52.492;13.434;2022-08-19T10:57:56;14.23;;;12.73;;
43337;SDS011;28933;52.492;13.434;2022-08-19T11:00:23;14.77;;;13.38;;
43337;SDS011;28933;52.492;13.434;2022-08-19T11:02:49;14.38;;;12.90;;
43337;SDS011;28933;52.492;13.434;2022-08-19T11:05:15;15.57;;;13.30;;
43337;SDS011;28933;52.492;13.434;2022-08-19T11:07:42;14.52;;;13.02;;
43337;SDS011;28933;52.492;13.434;2022-08-19T11:10:09;14.35;;;12.98;;
43337;SDS011;28933;52.492;13.434;2022-08-19T11:12:37;14.65;;;12.65;;
43337;SDS011;28933;52.492;13.434;2022-08-19T11:15:07;13.93;;;12.52;;
43337;SDS011;28933;52.492;13.434;2022-08-19T11:17:35;14.77;;;13.20;;
43337;SDS011;28933;52.492;13.434;2022-08-19T11:20:08;14.15;;;12.75;;
43337;SDS011;28933;52.492;13.434;2022-08-19T11:22:36;14.80;;;13.27;;
43337;SDS011;28933;52.492;13.434;2022-08-19T11:25:01;15.85;;;13.35;;
43337;SDS011;28933;52.492;13.434;2022-08-19T11:27:27;15.07;;;13.45;;
43337;SDS011;28933;52.492;13.434;2022-08-19T11:29:53;12.40;;;11.10;;
43337;SDS011;28933;52.492;13.434;2022-08-19T11:32:19;18.10;;;14.32;;
43337;SDS011;28933;52.492;13.434;2022-08-19T11:34:45;15.55;;;14.00;;
43337;SDS011;28933;52.492;13.434;2022-08-19T11:37:10;13.43;;;12.13;;
43337;SDS011;28933;52.492;13.434;2022-08-19T11:39:38;13.38;;;12.07;;
43337;SDS011;28933;52.492;13.434;2022-08-19T11:42:04;12.68;;;11.38;;
43337;SDS011;28933;52.492;13.434;2022-08-19T11:44:51;12.80;;;11.57;;
43337;SDS011;28933;52.492;13.434;2022-08-19T11:47:17;12.13;;;10.82;;
43337;SDS011;28933;52.492;13.434;2022-08-19T11:49:43;13.18;;;11.65;;
43337;SDS011;28933;52.492;13.434;2022-08-19T11:52:10;13.80;;;12.30;;
43337;SDS011;28933;52.492;13.434;2022-08-19T11:54:35;12.32;;;11.13;;
43337;SDS011;28933;52.492;13.434;2022-08-19T11:57:04;14.27;;;11.95;;
43337;SDS011;28933;52.492;13.434;2022-08-19T11:59:30;14.65;;;11.52;;
43337;SDS011;28933;52.492;13.434;2022-08-19T12:01:55;11.77;;;10.57;;
43337;SDS011;28933;52.492;13.434;2022-08-19T12:04:22;13.48;;;11.10;;
43337;SDS011;28933;52.492;13.434;2022-08-19T12:06:48;14.13;;;12.05;;
43337;SDS011;28933;52.492;13.434;2022-08-19T12:09:14;12.65;;;11.35;;
43337;SDS011;28933;52.492;13.434;2022-08-19T12:11:40;11.85;;;10.55;;
43337;SDS011;28933;52.492;13.434;2022-08-19T12:14:06;10.65;;;9.45;;
43337;SDS011;28933;52.492;13.434;2022-08-19T12:16:36;11.10;;;9.75;;
43337;SDS011;28933;52.492;13.434;2022-08-19T12:19:03;10.63;;;9.63;;
43337;SDS011;28933;52.492;13.434;2022-08-19T12:21:29;10.98;;;9.88;;
43337;SDS011;28933;52.492;13.434;2022-08-19T12:23:57;11.30;;;10.20;;
43337;SDS011;28933;52.492;13.434;2022-08-19T12:26:24;10.50;;;9.50;;
43337;SDS011;28933;52.492;13.434;2022-08-19T12:28:51;11.30;;;10.05;;
43337;SDS011;28933;52.492;13.434;2022-08-19T12:31:17;10.93;;;9.82;;
43337;SDS011;28933;52.492;13.434;2022-08-19T12:33:44;11.27;;;10.00;;
43337;SDS011;28933;52.492;13.434;2022-08-19T12:36:11;9.85;;;8.38;;
43337;SDS011;28933;52.492;13.434;2022-08-19T12:38:38;10.98;;;9.98;;
43337;SDS011;28933;52.492;13.434;2022-08-19T12:41:05;11.88;;;10.68;;
43337;SDS011;28933;52.492;13.434;2022-08-19T12:43:35;13.35;;;9.52;;
43337;SDS011;28933;52.492;13.434;2022-08-19T12:46:03;10.32;;;9.32;;
43337;SDS011;28933;52.492;13.434;2022-08-19T12:48:30;10.57;;;8.82;;
43337;SDS011;28933;52.492;13.434;2022-08-19T12:50:56;9.98;;;9.00;;
43337;SDS011;28933;52.492;13.434;2022-08-19T12:53:21;9.60;;;8.57;;
43337;SDS011;28933;52.492;13.434;2022-08-19T12:55:47;9.48;;;8.50;;
43337;SDS011;28933;52.492;13.434;2022-08-19T12:58:13;11.02;;;9.60;;
43337;SDS011;28933;52.492;13.434;2022-08-19T13:00:38;9.85;;;8.77;;
43337;SDS011;28933;52.492;13.434;2022-08-19T13:03:04;9.50;;;8.45;;
43337;SDS011;28933;52.492;13.434;2022-08-19T13:05:30;10.32;;;9.23;;
43337;SDS011;28933;52.492;13.434;2022-08-19T13:07:58;9.63;;;8.55;;
43337;SDS011;28933;52.492;13.434;2022-08-19T13:10:26;10.85;;;9.05;;
43337;SDS011;28933;52.492;13.434;2022-08-19T13:12:54;10.07;;;9.07;;
43337;SDS011;28933;52.492;13.434;2022-08-19T13:15:20;10.48;;;8.40;;
43337;SDS011;28933;52.492;13.434;2022-08-19T13:17:48;10.43;;;9.38;;
43337;SDS011;28933;52.492;13.434;2022-08-19T13:20:15;9.23;;;8.32;;
43337;SDS011;28933;52.492;13.434;2022-08-19T13:22:43;9.95;;;8.95;;
43337;SDS011;28933;52.492;13.434;2022-08-19T13:25:09;11.00;;;9.38;;
43337;SDS011;28933;52.492;13.434;2022-08-19T13:27:36;11.35;;;9.07;;
43337;SDS011;28933;52.492;13.434;2022-08-19T13:30:03;12.73;;;9.70;;
43337;SDS011;28933;52.492;13.434;2022-08-19T13:32:51;9.73;;;8.73;;
43337;SDS011;28933;52.492;13.434;2022-08-19T13:35:35;10.68;;;9.60;;
43337;SDS011;28933;52.492;13.434;2022-08-19T13:38:07;11.55;;;10.10;;
43337;SDS011;28933;52.492;13.434;2022-08-19T13:40:36;10.50;;;9.50;;
43337;SDS011;28933;52.492;13.434;2022-08-19T13:43:04;12.05;;;9.50;;
43337;SDS011;28933;52.492;13.434;2022-08-19T13:45:30;11.10;;;10.00;;
43337;SDS011;28933;52.492;13.434;2022-08-19T13:48:01;10.30;;;9.15;;
43337;SDS011;28933;52.492;13.434;2022-08-19T13:50:31;11.88;;;10.07;;
43337;SDS011;28933;52.492;13.434;2022-08-19T13:52:57;10.98;;;9.98;;
43337;SDS011;28933;52.492;13.434;2022-08-19T13:55:24;10.73;;;9.57;;
43337;SDS011;28933;52.492;13.434;2022-08-19T13:57:54;11.77;;;10.07;;
43337;SDS011;28933;52.492;13.434;2022-08-19T14:00:21;11.20;;;10.10;;
43337;SDS011;28933;52.492;13.434;2022-08-19T14:02:50;10.88;;;9.88;;
43337;SDS011;28933;52.492;13.434;2022-08-19T14:05:17;10.65;;;9.65;;
43337;SDS011;28933;52.492;13.434;2022-08-19T14:07:43;10.68;;;9.68;;
43337;SDS011;28933;52.492;13.434;2022-08-19T14:10:10;10.52;;;9.43;;
43337;SDS011;28933;52.492;13.434;2022-08-19T14:12:37;11.65;;;10.55;;
43337;SDS011;28933;52.492;13.434;2022-08-19T14:15:04;11.20;;;9.90;;
43337;SDS011;28933;52.492;13.434;2022-08-19T14:17:31;11.50;;;10.30;;
43337;SDS011;28933;52.492;13.434;2022-08-19T14:20:00;10.55;;;9.45;;
43337;SDS011;28933;52.492;13.434;2022-08-19T14:22:30;10.80;;;9.80;;
43337;SDS011;28933;52.492;13.434;2022-08-19T14:24:58;14.07;;;10.48;;
43337;SDS011;28933;52.492;13.434;2022-08-19T14:27:24;11.32;;;10.23;;
43337;SDS011;28933;52.492;13.434;2022-08-19T14:29:50;11.40;;;10.18;;